createdAt,value
2024-05-09T00:00:59.166Z,96557.00
2024-05-09T00:01:59.170Z,96557.00
2024-05-09T00:02:59.194Z,96556.00
2024-05-09T00:03:59.258Z,96554.00
2024-05-09T00:04:59.415Z,96553.00
2024-05-09T00:05:59.412Z,96555.00
2024-05-09T00:06:59.341Z,96553.00
2024-05-09T00:07:59.477Z,96552.00
2024-05-09T00:08:59.422Z,96552.00
2024-05-09T00:09:59.470Z,96551.00
2024-05-09T00:10:59.611Z,96550.00
2024-05-09T00:11:59.741Z,96551.00
2024-05-09T00:12:59.601Z,96552.00
2024-05-09T00:13:59.700Z,96549.00
2024-05-09T00:14:59.701Z,96550.00
2024-05-09T00:15:59.762Z,96550.00
2024-05-09T00:16:59.860Z,96549.00
2024-05-09T00:18:05.750Z,96548.00
2024-05-09T00:19:00.146Z,96547.00
2024-05-09T00:19:59.986Z,96546.00
2024-05-09T00:21:00.096Z,96545.00
2024-05-09T00:21:59.940Z,96543.00
2024-05-09T00:23:00.006Z,96545.00
2024-05-09T00:23:59.939Z,96542.00
2024-05-09T00:24:59.964Z,96541.00
2024-05-09T00:26:00.002Z,96539.00
2024-05-09T00:26:59.941Z,96538.00
2024-05-09T00:27:59.939Z,96538.00
2024-05-09T00:29:00.002Z,96536.00
2024-05-09T00:29:59.938Z,96536.00
2024-05-09T00:30:59.962Z,96533.00
2024-05-09T00:32:00.188Z,96532.00
2024-05-09T00:33:00.069Z,96532.00
2024-05-09T00:34:00.131Z,96530.00
2024-05-09T00:34:59.999Z,96531.00
2024-05-09T00:35:59.950Z,96532.00
2024-05-09T00:36:59.944Z,96529.00
2024-05-09T00:38:00.231Z,96530.00
2024-05-09T00:38:59.947Z,96530.00
2024-05-09T00:39:59.949Z,96528.00
2024-05-09T00:41:00.010Z,96529.00
2024-05-09T00:42:04.983Z,96529.00
2024-05-09T00:42:59.952Z,96529.00
2024-05-09T00:44:00.005Z,96528.00
2024-05-09T00:44:59.939Z,96526.00
2024-05-09T00:45:59.963Z,96526.00
2024-05-09T00:46:59.979Z,96527.00
2024-05-09T00:48:00.249Z,96526.00
2024-05-09T00:49:00.002Z,96527.00
2024-05-09T00:49:59.989Z,96527.00
2024-05-09T00:51:00.110Z,96527.00
2024-05-09T00:52:00.001Z,96524.00
2024-05-09T00:53:00.075Z,96526.00
2024-05-09T00:54:00.098Z,96526.00
2024-05-09T00:55:00.170Z,96522.00
2024-05-09T00:56:00.207Z,96522.00
2024-05-09T00:57:00.207Z,96523.00
2024-05-09T00:58:00.264Z,96522.00
2024-05-09T00:59:00.312Z,96520.00
2024-05-09T01:00:00.399Z,96519.00
2024-05-09T01:01:00.483Z,96520.00
2024-05-09T01:02:00.496Z,96519.00
2024-05-09T01:03:00.646Z,96518.00
2024-05-09T01:04:00.653Z,96515.00
2024-05-09T01:05:00.746Z,96518.00
2024-05-09T01:06:01.479Z,96519.00
2024-05-09T01:07:00.818Z,96520.00
2024-05-09T01:08:00.958Z,96518.00
2024-05-09T01:09:00.936Z,96518.00
2024-05-09T01:10:01.025Z,96520.00
2024-05-09T01:11:01.464Z,96520.00
2024-05-09T01:12:01.417Z,96517.00
2024-05-09T01:13:01.302Z,96517.00
2024-05-09T01:14:01.365Z,96517.00
2024-05-09T01:15:01.445Z,96517.00
2024-05-09T01:16:01.522Z,96514.00
2024-05-09T01:17:01.659Z,96515.00
2024-05-09T01:18:02.168Z,96516.00
2024-05-09T01:19:01.832Z,96513.00
2024-05-09T01:20:01.927Z,96514.00
2024-05-09T01:21:02.074Z,96514.00
2024-05-09T01:22:07.065Z,96515.00
2024-05-09T01:23:02.136Z,96514.00
2024-05-09T01:24:02.046Z,96514.00
2024-05-09T01:25:02.067Z,96516.00
2024-05-09T01:26:02.059Z,96516.00
2024-05-09T01:27:02.120Z,96514.00
2024-05-09T01:28:02.097Z,96516.00
2024-05-09T01:29:02.113Z,96515.00
2024-05-09T01:30:03.039Z,96513.00
2024-05-09T01:31:02.043Z,96514.00
2024-05-09T01:32:02.137Z,96516.00
2024-05-09T01:33:02.287Z,96515.00
2024-05-09T01:34:02.109Z,96515.00
2024-05-09T01:35:02.113Z,96515.00
2024-05-09T01:36:02.077Z,96515.00
2024-05-09T01:37:02.073Z,96514.00
2024-05-09T01:38:02.295Z,96515.00
2024-05-09T01:39:02.084Z,96514.00
2024-05-09T01:40:02.060Z,96516.00
2024-05-09T01:41:02.140Z,96515.00
2024-05-09T01:42:02.070Z,96515.00
2024-05-09T01:43:02.077Z,96512.00
2024-05-09T01:44:02.150Z,96513.00
2024-05-09T01:45:02.062Z,96512.00
2024-05-09T01:46:02.062Z,96512.00
2024-05-09T01:47:02.161Z,96514.00
2024-05-09T01:48:02.785Z,96513.00
2024-05-09T01:49:02.172Z,96513.00
2024-05-09T01:50:02.186Z,96511.00
2024-05-09T01:51:02.175Z,96510.00
2024-05-09T01:52:02.097Z,96513.00
2024-05-09T01:53:02.132Z,96511.00
2024-05-09T01:54:02.092Z,96510.00
2024-05-09T01:55:05.683Z,96511.00
2024-05-09T01:56:02.175Z,96511.00
2024-05-09T01:57:02.118Z,96509.00
2024-05-09T01:58:02.124Z,96511.00
2024-05-09T01:59:02.142Z,96511.00
2024-05-09T02:00:02.094Z,96509.00
2024-05-09T02:01:02.144Z,96509.00
2024-05-09T02:02:02.378Z,96509.00
2024-05-09T02:03:02.364Z,96508.00
2024-05-09T02:04:02.637Z,96509.00
2024-05-09T02:05:02.226Z,96509.00
2024-05-09T02:06:02.304Z,96508.00
2024-05-09T02:07:02.175Z,96509.00
2024-05-09T02:08:02.241Z,96508.00
2024-05-09T02:09:02.201Z,96509.00
2024-05-09T02:10:04.977Z,96506.00
2024-05-09T02:11:02.313Z,96505.00
2024-05-09T02:12:02.304Z,96504.00
2024-05-09T02:13:02.190Z,96503.00
2024-05-09T02:14:02.285Z,96503.00
2024-05-09T02:15:02.198Z,96502.00
2024-05-09T02:16:02.222Z,96503.00
2024-05-09T02:17:02.333Z,96503.00
2024-05-09T02:18:02.401Z,96504.00
2024-05-09T02:19:02.330Z,96505.00
2024-05-09T02:20:02.665Z,96506.00
2024-05-09T02:21:02.391Z,96505.00
2024-05-09T02:22:02.194Z,96506.00
2024-05-09T02:23:02.290Z,96507.00
2024-05-09T02:24:02.260Z,96505.00
2024-05-09T02:25:02.261Z,96507.00
2024-05-09T02:26:02.280Z,96506.00
2024-05-09T02:27:02.307Z,96503.00
2024-05-09T02:28:02.234Z,96504.00
2024-05-09T02:29:02.295Z,96504.00
2024-05-09T02:30:02.273Z,96504.00
2024-05-09T02:31:02.458Z,96501.00
2024-05-09T02:32:02.300Z,96503.00
2024-05-09T02:33:02.355Z,96504.00
2024-05-09T02:34:26.921Z,96500.00
2024-05-09T02:35:26.901Z,96501.00
2024-05-09T02:36:26.810Z,96499.00
2024-05-09T02:37:26.836Z,96498.00
2024-05-09T02:38:26.843Z,96498.00
2024-05-09T02:39:26.828Z,96497.00
2024-05-09T02:40:35.570Z,96498.00
2024-05-09T02:41:27.955Z,96496.00
2024-05-09T02:42:26.855Z,96498.00
2024-05-09T02:43:26.859Z,96499.00
2024-05-09T02:44:26.936Z,96499.00
2024-05-09T02:45:26.883Z,96498.00
2024-05-09T02:46:26.929Z,96500.00
2024-05-09T02:47:27.018Z,96499.00
2024-05-09T02:48:27.100Z,96500.00
2024-05-09T02:49:27.041Z,96501.00
2024-05-09T02:50:34.424Z,96500.00
2024-05-09T02:51:27.934Z,96500.00
2024-05-09T02:52:26.954Z,96502.00
2024-05-09T02:53:26.963Z,96504.00
2024-05-09T02:54:26.932Z,96501.00
2024-05-09T02:55:26.939Z,96501.00
2024-05-09T02:56:27.052Z,96501.00
2024-05-09T02:57:27.001Z,96499.00
2024-05-09T02:58:26.993Z,96499.00
2024-05-09T02:59:27.059Z,96499.00
2024-05-09T03:00:35.210Z,96500.00
2024-05-09T03:01:28.060Z,96497.00
2024-05-09T03:02:27.077Z,96498.00
2024-05-09T03:03:27.501Z,96498.00
2024-05-09T03:04:27.048Z,96499.00
2024-05-09T03:05:27.012Z,96498.00
2024-05-09T03:06:27.019Z,96500.00
2024-05-09T03:07:27.022Z,96501.00
2024-05-09T03:08:27.110Z,96503.00
2024-05-09T03:09:27.045Z,96503.00
2024-05-09T03:11:27.235Z,96504.00
2024-05-09T03:12:27.121Z,96503.00
2024-05-09T03:13:27.224Z,96504.00
2024-05-09T03:14:27.190Z,96504.00
2024-05-09T03:15:27.213Z,96502.00
2024-05-09T03:16:27.309Z,96501.00
2024-05-09T03:17:27.591Z,96503.00
2024-05-09T03:18:27.707Z,96502.00
2024-05-09T03:19:27.681Z,96501.00
2024-05-09T03:20:33.223Z,96501.00
2024-05-09T03:21:28.692Z,96502.00
2024-05-09T03:22:27.752Z,96500.00
2024-05-09T03:23:27.692Z,96500.00
2024-05-09T03:24:27.689Z,96500.00
2024-05-09T03:25:27.697Z,96501.00
2024-05-09T03:26:27.781Z,96499.00
2024-05-09T03:27:27.701Z,96498.00
2024-05-09T03:28:27.718Z,96501.00
2024-05-09T03:29:27.746Z,96499.00
2024-05-09T03:30:36.084Z,96500.00
2024-05-09T03:31:28.812Z,96498.00
2024-05-09T03:32:28.020Z,96500.00
2024-05-09T03:33:28.083Z,96501.00
2024-05-09T03:34:28.009Z,96500.00
2024-05-09T03:35:27.961Z,96501.00
2024-05-09T03:36:27.869Z,96500.00
2024-05-09T03:37:27.875Z,96499.00
2024-05-09T03:38:27.941Z,96500.00
2024-05-09T03:39:27.862Z,96499.00
2024-05-09T03:40:31.003Z,96500.00
2024-05-09T03:41:27.909Z,96499.00
2024-05-09T03:42:27.882Z,96500.00
2024-05-09T03:43:27.873Z,96500.00
2024-05-09T03:44:27.991Z,96501.00
2024-05-09T03:45:27.863Z,96501.00
2024-05-09T03:46:27.892Z,96500.00
2024-05-09T03:47:28.175Z,96500.00
2024-05-09T03:48:28.020Z,96500.00
2024-05-09T03:49:27.950Z,96500.00
2024-05-09T03:50:33.719Z,96498.00
2024-05-09T03:51:28.905Z,96501.00
2024-05-09T03:52:27.935Z,96501.00
2024-05-09T03:53:28.046Z,96500.00
2024-05-09T03:54:27.899Z,96502.00
2024-05-09T03:55:27.891Z,96501.00
2024-05-09T03:56:27.983Z,96503.00
2024-05-09T03:57:27.940Z,96504.00
2024-05-09T03:58:27.949Z,96506.00
2024-05-09T03:59:28.034Z,96507.00
2024-05-09T04:00:35.269Z,96507.00
2024-05-09T04:01:29.003Z,96508.00
2024-05-09T04:02:28.132Z,96507.00
2024-05-09T04:03:28.266Z,96512.00
2024-05-09T04:04:27.989Z,96512.00
2024-05-09T04:05:28.080Z,96512.00
2024-05-09T04:06:27.980Z,96512.00
2024-05-09T04:07:27.986Z,96514.00
2024-05-09T04:08:28.025Z,96516.00
2024-05-09T04:09:27.990Z,96517.00
2024-05-09T04:10:33.022Z,96516.00
2024-05-09T04:11:29.064Z,96516.00
2024-05-09T04:12:28.058Z,96519.00
2024-05-09T04:13:28.015Z,96518.00
2024-05-09T04:14:28.078Z,96517.00
2024-05-09T04:15:28.019Z,96517.00
2024-05-09T04:16:28.037Z,96515.00
2024-05-09T04:17:28.238Z,96515.00
2024-05-09T04:18:28.132Z,96516.00
2024-05-09T04:19:28.257Z,96517.00
2024-05-09T04:20:37.105Z,96518.00
2024-05-09T04:21:29.054Z,96515.00
2024-05-09T04:22:28.052Z,96517.00
2024-05-09T04:23:28.168Z,96518.00
2024-05-09T04:24:28.050Z,96518.00
2024-05-09T04:25:28.052Z,96518.00
2024-05-09T04:26:28.098Z,96519.00
2024-05-09T04:27:28.072Z,96515.00
2024-05-09T04:28:28.071Z,96518.00
2024-05-09T04:29:28.238Z,96521.00
2024-05-09T04:30:35.000Z,96521.00
2024-05-09T04:31:29.122Z,96521.00
2024-05-09T04:32:28.263Z,96523.00
2024-05-09T04:33:28.301Z,96522.00
2024-05-09T04:34:28.227Z,96521.00
2024-05-09T04:35:28.279Z,96522.00
2024-05-09T04:36:28.135Z,96526.00
2024-05-09T04:37:28.131Z,96527.00
2024-05-09T04:38:28.186Z,96526.00
2024-05-09T04:39:28.153Z,96526.00
2024-05-09T04:40:33.505Z,96525.00
2024-05-09T04:41:29.246Z,96528.00
2024-05-09T04:42:28.200Z,96528.00
2024-05-09T04:43:28.191Z,96529.00
2024-05-09T04:44:28.332Z,96528.00
2024-05-09T04:45:28.198Z,96530.00
2024-05-09T04:46:28.197Z,96527.00
2024-05-09T04:47:28.405Z,96526.00
2024-05-09T04:48:28.473Z,96528.00
2024-05-09T04:49:28.275Z,96529.00
2024-05-09T04:50:35.727Z,96527.00
2024-05-09T04:51:29.192Z,96528.00
2024-05-09T04:52:28.177Z,96529.00
2024-05-09T04:53:28.206Z,96531.00
2024-05-09T04:54:34.322Z,96531.00
2024-05-09T04:55:29.183Z,96533.00
2024-05-09T04:56:28.240Z,96533.00
2024-05-09T04:57:28.193Z,96535.00
2024-05-09T04:58:28.202Z,96538.00
2024-05-09T04:59:28.249Z,96537.00
2024-05-09T05:00:35.019Z,96539.00
2024-05-09T05:01:29.281Z,96540.00
2024-05-09T05:02:28.326Z,96541.00
2024-05-09T05:03:28.366Z,96543.00
2024-05-09T05:04:28.288Z,96542.00
2024-05-09T05:05:28.322Z,96541.00
2024-05-09T05:06:28.229Z,96542.00
2024-05-09T05:07:28.233Z,96542.00
2024-05-09T05:08:28.383Z,96540.00
2024-05-09T05:09:28.242Z,96540.00
2024-05-09T05:10:33.680Z,96538.00
2024-05-09T05:11:29.348Z,96536.00
2024-05-09T05:12:28.418Z,96537.00
2024-05-09T05:13:28.273Z,96534.00
2024-05-09T05:14:28.293Z,96533.00
2024-05-09T05:15:28.227Z,96531.00
2024-05-09T05:16:28.239Z,96531.00
2024-05-09T05:17:28.369Z,96531.00
2024-05-09T05:18:28.613Z,96534.00
2024-05-09T05:19:28.292Z,96532.00
2024-05-09T05:20:33.500Z,96532.00
2024-05-09T05:21:29.294Z,96533.00
2024-05-09T05:22:28.244Z,96535.00
2024-05-09T05:23:28.362Z,96534.00
2024-05-09T05:24:28.246Z,96533.00
2024-05-09T05:25:28.250Z,96536.00
2024-05-09T05:26:28.311Z,96537.00
2024-05-09T05:27:28.309Z,96538.00
2024-05-09T05:28:28.285Z,96537.00
2024-05-09T05:29:28.304Z,96538.00
2024-05-09T05:30:32.916Z,96537.00
2024-05-09T05:31:29.362Z,96539.00
2024-05-09T05:32:28.497Z,96540.00
2024-05-09T05:33:28.533Z,96539.00
2024-05-09T05:34:28.367Z,96541.00
2024-05-09T05:35:28.564Z,96538.00
2024-05-09T05:36:28.367Z,96539.00
2024-05-09T05:37:28.439Z,96540.00
2024-05-09T05:38:28.861Z,96538.00
2024-05-09T05:39:28.391Z,96538.00
2024-05-09T05:40:35.763Z,96540.00
2024-05-09T05:41:29.422Z,96537.00
2024-05-09T05:42:28.435Z,96539.00
2024-05-09T05:43:28.375Z,96539.00
2024-05-09T05:44:28.510Z,96538.00
2024-05-09T05:45:28.386Z,96539.00
2024-05-09T05:46:28.392Z,96542.00
2024-05-09T05:47:28.516Z,96539.00
2024-05-09T05:48:28.520Z,96540.00
2024-05-09T05:49:28.508Z,96541.00
2024-05-09T05:50:35.434Z,96540.00
2024-05-09T05:51:29.494Z,96541.00
2024-05-09T05:52:28.537Z,96539.00
2024-05-09T05:53:28.590Z,96541.00
2024-05-09T05:54:28.559Z,96540.00
2024-05-09T05:55:28.515Z,96540.00
2024-05-09T05:56:28.585Z,96536.00
2024-05-09T05:57:29.080Z,96537.00
2024-05-09T05:58:28.518Z,96537.00
2024-05-09T05:59:28.591Z,96540.00
2024-05-09T06:00:34.895Z,96539.00
2024-05-09T06:01:29.555Z,96541.00
2024-05-09T06:02:28.604Z,96540.00
2024-05-09T06:03:28.645Z,96541.00
2024-05-09T06:04:28.533Z,96542.00
2024-05-09T06:05:28.568Z,96544.00
2024-05-09T06:06:28.568Z,96544.00
2024-05-09T06:07:28.583Z,96544.00
2024-05-09T06:08:30.336Z,96544.00
2024-05-09T06:09:28.594Z,96543.00
2024-05-09T06:10:35.189Z,96541.00
2024-05-09T06:11:29.675Z,96540.00
2024-05-09T06:12:28.652Z,96541.00
2024-05-09T06:13:28.571Z,96539.00
2024-05-09T06:14:28.765Z,96539.00
2024-05-09T06:15:28.592Z,96540.00
2024-05-09T06:16:28.591Z,96540.00
2024-05-09T06:17:28.725Z,96541.00
2024-05-09T06:18:28.761Z,96542.00
2024-05-09T06:19:28.777Z,96545.00
2024-05-09T06:20:35.263Z,96544.00
2024-05-09T06:21:29.754Z,96545.00
2024-05-09T06:22:28.685Z,96544.00
2024-05-09T06:23:28.756Z,96547.00
2024-05-09T06:24:28.660Z,96543.00
2024-05-09T06:25:28.651Z,96546.00
2024-05-09T06:26:28.682Z,96545.00
2024-05-09T06:27:28.675Z,96543.00
2024-05-09T06:28:28.675Z,96544.00
2024-05-09T06:29:28.846Z,96545.00
2024-05-09T06:30:37.011Z,96544.00
2024-05-09T06:31:29.731Z,96546.00
2024-05-09T06:32:28.782Z,96548.00
2024-05-09T06:33:29.045Z,96547.00
2024-05-09T06:34:28.823Z,96546.00
2024-05-09T06:35:28.815Z,96544.00
2024-05-09T06:36:28.741Z,96544.00
2024-05-09T06:37:28.739Z,96547.00
2024-05-09T06:38:28.772Z,96546.00
2024-05-09T06:39:28.751Z,96546.00
2024-05-09T06:40:36.661Z,96548.00
2024-05-09T06:41:29.928Z,96549.00
2024-05-09T06:42:28.775Z,96551.00
2024-05-09T06:43:28.780Z,96552.00
2024-05-09T06:44:28.839Z,96552.00
2024-05-09T06:45:28.806Z,96554.00
2024-05-09T06:46:28.805Z,96553.00
2024-05-09T06:47:28.973Z,96554.00
2024-05-09T06:48:28.940Z,96553.00
2024-05-09T06:49:28.925Z,96555.00
2024-05-09T06:50:35.723Z,96553.00
2024-05-09T06:51:29.791Z,96554.00
2024-05-09T06:52:28.805Z,96554.00
2024-05-09T06:53:28.924Z,96555.00
2024-05-09T06:54:28.787Z,96555.00
2024-05-09T06:55:28.794Z,96556.00
2024-05-09T06:56:28.939Z,96555.00
2024-05-09T06:57:28.871Z,96557.00
2024-05-09T06:58:28.880Z,96555.00
2024-05-09T06:59:29.137Z,96554.00
2024-05-09T07:00:35.775Z,96553.00
2024-05-09T07:01:29.903Z,96555.00
2024-05-09T07:02:28.966Z,96553.00
2024-05-09T07:03:28.969Z,96553.00
2024-05-09T07:04:28.958Z,96552.00
2024-05-09T07:05:28.887Z,96553.00
2024-05-09T07:06:28.854Z,96553.00
2024-05-09T07:07:28.853Z,96554.00
2024-05-09T07:08:28.892Z,96554.00
2024-05-09T07:09:28.896Z,96554.00
2024-05-09T07:10:37.197Z,96554.00
2024-05-09T07:11:36.621Z,96553.00
2024-05-09T07:12:36.591Z,96554.00
2024-05-09T07:13:36.602Z,96554.00
2024-05-09T07:14:38.152Z,96555.00
2024-05-09T07:15:36.598Z,96555.00
2024-05-09T07:16:36.614Z,96554.00
2024-05-09T07:17:36.754Z,96554.00
2024-05-09T07:18:36.893Z,96553.00
2024-05-09T07:19:36.722Z,96554.00
2024-05-09T07:20:36.645Z,96555.00
2024-05-09T07:21:36.631Z,96556.00
2024-05-09T07:22:36.658Z,96555.00
2024-05-09T07:23:36.808Z,96554.00
2024-05-09T07:24:36.739Z,96554.00
2024-05-09T07:25:36.768Z,96552.00
2024-05-09T07:26:36.874Z,96551.00
2024-05-09T07:27:36.859Z,96554.00
2024-05-09T07:28:36.866Z,96552.00
2024-05-09T07:29:38.682Z,96551.00
2024-05-09T07:30:36.994Z,96551.00
2024-05-09T07:31:37.030Z,96550.00
2024-05-09T07:32:37.493Z,96549.00
2024-05-09T07:33:37.255Z,96551.00
2024-05-09T07:34:37.180Z,96550.00
2024-05-09T07:35:37.360Z,96548.00
2024-05-09T07:36:37.247Z,96549.00
2024-05-09T07:37:37.388Z,96547.00
2024-05-09T07:38:37.577Z,96549.00
2024-05-09T07:39:37.366Z,96545.00
2024-05-09T07:40:37.399Z,96549.00
2024-05-09T07:41:37.630Z,96550.00
2024-05-09T07:42:42.523Z,96546.00
2024-05-09T07:43:37.477Z,96547.00
2024-05-09T07:44:37.559Z,96549.00
2024-05-09T07:45:48.595Z,96548.00
2024-05-09T07:47:47.319Z,96545.00
2024-05-09T07:48:58.078Z,96546.00
2024-05-09T07:53:33.823Z,96541.00
2024-05-09T07:53:43.868Z,96543.00
2024-05-09T07:54:38.615Z,96540.00
2024-05-09T07:55:37.696Z,96541.00
2024-05-09T07:56:37.646Z,96538.00
2024-05-09T07:57:37.549Z,96538.00
2024-05-09T07:58:37.525Z,96540.00
2024-05-09T07:59:38.017Z,96538.00
2024-05-09T08:00:37.613Z,96537.00
2024-05-09T08:01:37.610Z,96538.00
2024-05-09T08:02:37.582Z,96537.00
2024-05-09T08:03:37.779Z,96535.00
2024-05-09T08:04:37.658Z,96535.00
2024-05-09T08:05:37.653Z,96536.00
2024-05-09T08:06:37.542Z,96535.00
2024-05-09T08:07:37.535Z,96537.00
2024-05-09T08:08:37.540Z,96538.00
2024-05-09T08:09:38.684Z,96536.00
2024-05-09T08:10:37.628Z,96536.00
2024-05-09T08:11:37.564Z,96536.00
2024-05-09T08:12:37.574Z,96535.00
2024-05-09T08:13:37.605Z,96535.00
2024-05-09T08:14:37.566Z,96535.00
2024-05-09T08:15:37.571Z,96535.00
2024-05-09T08:16:37.600Z,96533.00
2024-05-09T08:17:37.697Z,96532.00
2024-05-09T08:18:37.919Z,96532.00
2024-05-09T08:19:37.685Z,96531.00
2024-05-09T08:20:37.583Z,96533.00
2024-05-09T08:21:37.636Z,96532.00
2024-05-09T08:22:37.579Z,96533.00
2024-05-09T08:23:37.575Z,96531.00
2024-05-09T08:24:37.611Z,96530.00
2024-05-09T08:25:37.594Z,96531.00
2024-05-09T08:26:37.613Z,96531.00
2024-05-09T08:27:37.683Z,96533.00
2024-05-09T08:28:37.706Z,96532.00
2024-05-09T08:29:37.766Z,96532.00
2024-05-09T08:30:38.436Z,96531.00
2024-05-09T08:31:37.896Z,96530.00
2024-05-09T08:32:37.900Z,96532.00
2024-05-09T08:33:38.041Z,96531.00
2024-05-09T08:34:38.066Z,96529.00
2024-05-09T08:35:38.036Z,96528.00
2024-05-09T08:36:38.090Z,96528.00
2024-05-09T08:37:40.568Z,96525.00
2024-05-09T08:38:38.112Z,96526.00
2024-05-09T08:39:38.134Z,96526.00
2024-05-09T08:40:38.506Z,96526.00
2024-05-09T08:41:38.123Z,96526.00
2024-05-09T08:42:38.172Z,96527.00
2024-05-09T08:43:39.901Z,96524.00
2024-05-09T08:44:38.126Z,96524.00
2024-05-09T08:45:38.174Z,96524.00
2024-05-09T08:46:38.180Z,96522.00
2024-05-09T08:47:38.189Z,96522.00
2024-05-09T08:48:38.339Z,96522.00
2024-05-09T08:49:39.921Z,96519.00
2024-05-09T08:50:39.701Z,96518.00
2024-05-09T08:51:38.160Z,96519.00
2024-05-09T08:52:38.143Z,96519.00
2024-05-09T08:53:38.170Z,96515.00
2024-05-09T08:54:38.169Z,96517.00
2024-05-09T08:55:40.487Z,96517.00
2024-05-09T08:56:38.126Z,96518.00
2024-05-09T08:57:38.167Z,96519.00
2024-05-09T08:58:38.127Z,96520.00
2024-05-09T08:59:38.128Z,96516.00
2024-05-09T09:00:38.226Z,96518.00
2024-05-09T09:01:39.339Z,96519.00
2024-05-09T09:02:38.302Z,96519.00
2024-05-09T09:03:38.384Z,96518.00
2024-05-09T09:04:38.315Z,96516.00
2024-05-09T09:05:38.352Z,96517.00
2024-05-09T09:06:38.179Z,96517.00
2024-05-09T09:07:38.166Z,96516.00
2024-05-09T09:08:38.157Z,96515.00
2024-05-09T09:09:38.195Z,96513.00
2024-05-09T09:10:38.196Z,96511.00
2024-05-09T09:11:38.159Z,96512.00
2024-05-09T09:12:38.257Z,96512.00
2024-05-09T09:13:38.203Z,96512.00
2024-05-09T09:14:38.278Z,96512.00
2024-05-09T09:15:38.216Z,96509.00
2024-05-09T09:16:38.249Z,96508.00
2024-05-09T09:17:38.279Z,96507.00
2024-05-09T09:18:38.773Z,96507.00
2024-05-09T09:19:38.227Z,96504.00
2024-05-09T09:20:38.267Z,96503.00
2024-05-09T09:21:38.231Z,96504.00
2024-05-09T09:22:38.202Z,96499.00
2024-05-09T09:23:38.229Z,96498.00
2024-05-09T09:24:38.256Z,96502.00
2024-05-09T09:25:38.206Z,96499.00
2024-05-09T09:26:38.230Z,96501.00
2024-05-09T09:27:38.245Z,96502.00
2024-05-09T09:28:38.226Z,96501.00
2024-05-09T09:29:38.207Z,96501.00
2024-05-09T09:30:38.362Z,96502.00
2024-05-09T09:31:38.247Z,96502.00
2024-05-09T09:32:38.331Z,96500.00
2024-05-09T09:33:38.379Z,96500.00
2024-05-09T09:34:38.277Z,96498.00
2024-05-09T09:35:38.239Z,96496.00
2024-05-09T09:36:38.257Z,96497.00
2024-05-09T09:37:38.227Z,96496.00
2024-05-09T09:38:38.231Z,96493.00
2024-05-09T09:39:38.290Z,96493.00
2024-05-09T09:40:42.535Z,96489.00
2024-05-09T09:41:39.256Z,96490.00
2024-05-09T09:42:38.340Z,96488.00
2024-05-09T09:43:38.227Z,96485.00
2024-05-09T09:44:42.115Z,96486.00
2024-05-09T09:45:38.263Z,96487.00
2024-05-09T09:46:38.279Z,96485.00
2024-05-09T09:47:38.313Z,96489.00
2024-05-09T09:48:38.305Z,96487.00
2024-05-09T09:49:38.328Z,96487.00
2024-05-09T09:50:38.239Z,96487.00
2024-05-09T09:51:38.296Z,96486.00
2024-05-09T09:52:38.244Z,96485.00
2024-05-09T09:53:38.310Z,96486.00
2024-05-09T09:54:38.252Z,96487.00
2024-05-09T09:55:38.887Z,96485.00
2024-05-09T09:56:38.242Z,96484.00
2024-05-09T09:57:38.289Z,96484.00
2024-05-09T09:58:38.233Z,96484.00
2024-05-09T09:59:38.244Z,96485.00
2024-05-09T10:00:38.388Z,96484.00
2024-05-09T10:01:38.365Z,96482.00
2024-05-09T10:02:38.332Z,96483.00
2024-05-09T10:03:38.605Z,96482.00
2024-05-09T10:04:38.394Z,96478.00
2024-05-09T10:05:39.840Z,96476.00
2024-05-09T10:06:38.284Z,96477.00
2024-05-09T10:07:38.273Z,96479.00
2024-05-09T10:08:38.287Z,96476.00
2024-05-09T10:09:38.321Z,96477.00
2024-05-09T10:10:38.380Z,96478.00
2024-05-09T10:11:42.014Z,96476.00
2024-05-09T10:12:39.356Z,96473.00
2024-05-09T10:13:38.309Z,96479.00
2024-05-09T10:14:38.333Z,96478.00
2024-05-09T10:15:39.368Z,96475.00
2024-05-09T10:16:38.331Z,96477.00
2024-05-09T10:17:38.503Z,96474.00
2024-05-09T10:18:38.590Z,96474.00
2024-05-09T10:19:38.491Z,96475.00
2024-05-09T10:20:38.316Z,96473.00
2024-05-09T10:21:38.356Z,96471.00
2024-05-09T10:22:38.320Z,96471.00
2024-05-09T10:23:38.332Z,96470.00
2024-05-09T10:24:38.411Z,96471.00
2024-05-09T10:25:38.320Z,96471.00
2024-05-09T10:26:38.327Z,96468.00
2024-05-09T10:27:38.376Z,96467.00
2024-05-09T10:28:38.393Z,96468.00
2024-05-09T10:29:38.442Z,96466.00
2024-05-09T10:30:39.419Z,96466.00
2024-05-09T10:31:38.687Z,96463.00
2024-05-09T10:32:38.646Z,96462.00
2024-05-09T10:33:38.876Z,96461.00
2024-05-09T10:34:38.698Z,96460.00
2024-05-09T10:35:38.726Z,96460.00
2024-05-09T10:36:38.888Z,96460.00
2024-05-09T10:37:38.862Z,96461.00
2024-05-09T10:38:38.942Z,96462.00
2024-05-09T10:39:39.161Z,96460.00
2024-05-09T10:40:39.264Z,96459.00
2024-05-09T10:41:39.268Z,96458.00
2024-05-09T10:42:39.366Z,96456.00
2024-05-09T10:43:39.420Z,96455.00
2024-05-09T10:44:39.492Z,96456.00
2024-05-09T10:45:39.605Z,96453.00
2024-05-09T10:46:39.649Z,96451.00
2024-05-09T10:47:39.791Z,96450.00
2024-05-09T10:48:40.090Z,96450.00
2024-05-09T10:49:39.879Z,96451.00
2024-05-09T10:50:39.978Z,96449.00
2024-05-09T10:51:40.068Z,96448.00
2024-05-09T10:52:40.093Z,96451.00
2024-05-09T10:53:40.169Z,96447.00
2024-05-09T10:54:40.330Z,96446.00
2024-05-09T10:55:40.354Z,96447.00
2024-05-09T10:56:40.429Z,96443.00
2024-05-09T10:57:40.474Z,96446.00
2024-05-09T10:58:42.767Z,96444.00
2024-05-09T10:59:40.580Z,96445.00
2024-05-09T11:00:40.739Z,96443.00
2024-05-09T11:01:40.847Z,96441.00
2024-05-09T11:02:40.951Z,96444.00
2024-05-09T11:03:40.992Z,96441.00
2024-05-09T11:04:40.943Z,96441.00
2024-05-09T11:05:41.019Z,96440.00
2024-05-09T11:06:40.928Z,96442.00
2024-05-09T11:07:40.906Z,96441.00
2024-05-09T11:08:40.952Z,96442.00
2024-05-09T11:09:41.943Z,96445.00
2024-05-09T11:10:41.093Z,96444.00
2024-05-09T11:11:41.107Z,96442.00
2024-05-09T11:12:41.151Z,96442.00
2024-05-09T11:13:41.140Z,96440.00
2024-05-09T11:14:41.164Z,96442.00
2024-05-09T11:15:41.304Z,96442.00
2024-05-09T11:16:41.279Z,96438.00
2024-05-09T11:17:41.579Z,96439.00
2024-05-09T11:18:41.599Z,96439.00
2024-05-09T11:19:41.609Z,96438.00
2024-05-09T11:20:41.696Z,96437.00
2024-05-09T11:21:41.728Z,96437.00
2024-05-09T11:22:41.769Z,96434.00
2024-05-09T11:23:41.971Z,96434.00
2024-05-09T11:24:41.949Z,96435.00
2024-05-09T11:25:41.979Z,96434.00
2024-05-09T11:26:42.066Z,96435.00
2024-05-09T11:27:42.172Z,96432.00
2024-05-09T11:28:42.274Z,96433.00
2024-05-09T11:29:42.334Z,96433.00
2024-05-09T11:30:42.440Z,96432.00
2024-05-09T11:31:42.543Z,96433.00
2024-05-09T11:32:42.751Z,96433.00
2024-05-09T11:33:42.884Z,96430.00
2024-05-09T11:34:42.967Z,96431.00
2024-05-09T11:35:42.849Z,96430.00
2024-05-09T11:36:43.097Z,96429.00
2024-05-09T11:37:43.030Z,96426.00
2024-05-09T11:38:43.296Z,96426.00
2024-05-09T11:39:43.207Z,96429.00
2024-05-09T11:40:43.359Z,96427.00
2024-05-09T11:41:43.394Z,96425.00
2024-05-09T11:42:43.473Z,96425.00
2024-05-09T11:43:43.480Z,96427.00
2024-05-09T11:44:43.577Z,96426.00
2024-05-09T11:45:51.039Z,96423.00
2024-05-09T11:46:50.974Z,96424.00
2024-05-09T11:47:51.027Z,96423.00
2024-05-09T11:48:51.135Z,96424.00
2024-05-09T11:49:51.042Z,96420.00
2024-05-09T11:50:51.034Z,96419.00